دوحة, قطر

06:05 PM AST on دسمبر 19, 2014 (GMT +0300)
Wakra | Change Station
CLOSE
Current Station
Personal Weather Stations
Location: Wakra, WAKRA
Elevation: 23 ft
Nearby Weather Stations

Elev 23 ft 25.17 °N, 51.60 °E | Updated 1 second ago

Partly Cloudy
غائم جزئياً
69.8 °F
Feels Like 69.8 °F
N
2.2
ريح متغير ريح from NW
Gusts 3.6 mph

هذا اليوم
High -- | Low -- °F
--% Chance of Precip.
Yesterday
High -- | Low -- °F
Precip. -- في
6:13 AM 4:47 PM
الهلال الأخير, 7% visible
الضغط 30.18 في
وضوح الرؤية 6.2 أميال
سحابات Few 20000 ft
نقطة الندى 56 °F
الرطوبة 62%
Rainfall 0.00 في
عمق الثلج Not available.
الأشعة فوق البنفسجية 0 out of 12
Pollen Not available.
جودة الهواء Not available.
Flu Activity Not available.
METAR KQIR 191458Z 32007KT 9999 FEW200 20/12 A3017 RMK AO2A SLP218 T01970116 52008 $

More Conditions Fewer Conditions

الضغط 30.18 في
وضوح الرؤية 6.2 أميال
سحابات Few 20000 ft
نقطة الندى 56 °F
الرطوبة 62%
Rainfall 0.00 في
عمق الثلج Not available.
الأشعة فوق البنفسجية 0 out of 12
Pollen Not available.
جودة الهواء Not available.
Flu Activity Not available.
METAR KQIR 191458Z 32007KT 9999 FEW200 20/12 A3017 RMK AO2A SLP218 T01970116 52008 $

More Conditions Fewer Conditions

10-Day Weather Forecast

Almanac

علم الفلك

Dec. 19, 2014 Rise Set
Actual Time
Civil Twilight
Nautical Twilight
Astronomical Twilight
قمر
Length Of Visible Light
طول الیوم
Tomorrow will be .
, % of the Moon is Illuminated

Today's Extremes

Country Highs Country Lows

Community

WunderPhotos

Upload Photos

1,778,993 photos uploaded!

WunderBlogs® & News

Nearby

جودة الهواء

  جودة الهواء AQ Index Pollutant
Not available.

عمق الثلج

Station Depth Elevation

Earthquake Activity

City Distance Mag. Time & Date
Minimum magnitude displayed is 2.5.

Coastal Water Temperatures

مكان درجات الحرارة

Nearby Weather Stations